Russell, Mississippi
Current Conditions -  °F | °C
As of 8:58 PM on Saturday 24 Jan 2015 (Local Time) from KMEI Reporting Station
Clear Clear  
Wind Chill: 32°   Ceiling: Unl
Heat Index: 36°   Visibility: 10mi
Dew Point: 34°   Wind: 5mph
Humidity: 93%   Direction: 200°SSW
Pressure: 30.03"   Gusts: NA
Location:  32.3221°N, 88.5771°W
Report Text: KMEI 250258Z 20004KT 10SM CLR 02/01 A3003 RMK AO2 SLP168 T00220011 58003
Loading
Personal Weather Stations






























Interactive Weather Map New forecast layout! Learn more

10-Day Weather Forecast

Advertisements
Track Severe Weather on mobile